sensor_id;sensor_type;location;lat;lon;timestamp;P1;durP1;ratioP1;P2;durP2;ratioP2
28509;SDS011;15723;55.684;37.928;2022-12-05T00:00:30;47.83;;;19.27;;
28509;SDS011;15723;55.684;37.928;2022-12-05T00:02:57;36.10;;;16.27;;
28509;SDS011;15723;55.684;37.928;2022-12-05T00:05:28;44.73;;;20.07;;
28509;SDS011;15723;55.684;37.928;2022-12-05T00:07:54;481.53;;;52.37;;
28509;SDS011;15723;55.684;37.928;2022-12-05T00:10:20;34.17;;;17.13;;
28509;SDS011;15723;55.684;37.928;2022-12-05T00:12:46;37.33;;;17.07;;
28509;SDS011;15723;55.684;37.928;2022-12-05T00:15:13;39.03;;;15.63;;
28509;SDS011;15723;55.684;37.928;2022-12-05T00:17:39;39.97;;;18.23;;
28509;SDS011;15723;55.684;37.928;2022-12-05T00:20:06;43.10;;;16.73;;
28509;SDS011;15723;55.684;37.928;2022-12-05T00:22:34;31.13;;;14.77;;
28509;SDS011;15723;55.684;37.928;2022-12-05T00:25:05;35.30;;;15.33;;
28509;SDS011;15723;55.684;37.928;2022-12-05T00:27:32;34.63;;;14.20;;
28509;SDS011;15723;55.684;37.928;2022-12-05T00:29:58;36.87;;;14.17;;
28509;SDS011;15723;55.684;37.928;2022-12-05T00:32:27;35.23;;;15.83;;
28509;SDS011;15723;55.684;37.928;2022-12-05T00:34:54;31.03;;;13.07;;
28509;SDS011;15723;55.684;37.928;2022-12-05T00:37:21;36.43;;;15.23;;
28509;SDS011;15723;55.684;37.928;2022-12-05T00:39:47;29.97;;;12.97;;
28509;SDS011;15723;55.684;37.928;2022-12-05T00:42:13;31.97;;;14.17;;
28509;SDS011;15723;55.684;37.928;2022-12-05T00:44:40;35.80;;;14.03;;
28509;SDS011;15723;55.684;37.928;2022-12-05T00:47:06;31.23;;;14.77;;
28509;SDS011;15723;55.684;37.928;2022-12-05T00:49:32;30.53;;;13.60;;
28509;SDS011;15723;55.684;37.928;2022-12-05T00:52:18;30.43;;;14.43;;
28509;SDS011;15723;55.684;37.928;2022-12-05T00:54:45;34.83;;;15.77;;
28509;SDS011;15723;55.684;37.928;2022-12-05T00:57:11;35.47;;;14.77;;
28509;SDS011;15723;55.684;37.928;2022-12-05T00:59:37;33.60;;;16.13;;
28509;SDS011;15723;55.684;37.928;2022-12-05T01:02:05;32.37;;;14.47;;
28509;SDS011;15723;55.684;37.928;2022-12-05T01:04:31;38.77;;;18.17;;
28509;SDS011;15723;55.684;37.928;2022-12-05T01:06:57;43.70;;;17.90;;
28509;SDS011;15723;55.684;37.928;2022-12-05T01:09:24;42.80;;;17.77;;
28509;SDS011;15723;55.684;37.928;2022-12-05T01:11:50;39.47;;;17.17;;
28509;SDS011;15723;55.684;37.928;2022-12-05T01:14:18;37.93;;;15.27;;
28509;SDS011;15723;55.684;37.928;2022-12-05T01:16:46;42.17;;;18.80;;
28509;SDS011;15723;55.684;37.928;2022-12-05T01:19:15;43.63;;;17.30;;
28509;SDS011;15723;55.684;37.928;2022-12-05T01:21:43;37.83;;;17.53;;
28509;SDS011;15723;55.684;37.928;2022-12-05T01:24:10;43.13;;;16.17;;
28509;SDS011;15723;55.684;37.928;2022-12-05T01:26:37;43.63;;;17.60;;
28509;SDS011;15723;55.684;37.928;2022-12-05T01:29:03;37.37;;;16.77;;
28509;SDS011;15723;55.684;37.928;2022-12-05T01:31:31;40.93;;;18.63;;
28509;SDS011;15723;55.684;37.928;2022-12-05T01:34:00;42.00;;;17.47;;
28509;SDS011;15723;55.684;37.928;2022-12-05T01:36:36;44.47;;;18.87;;
28509;SDS011;15723;55.684;37.928;2022-12-05T01:39:04;75.87;;;20.40;;
28509;SDS011;15723;55.684;37.928;2022-12-05T01:41:32;222.67;;;28.90;;
28509;SDS011;15723;55.684;37.928;2022-12-05T01:44:05;48.85;;;17.95;;
28509;SDS011;15723;55.684;37.928;2022-12-05T01:46:38;91.73;;;22.63;;
28509;SDS011;15723;55.684;37.928;2022-12-05T01:51:35;44.97;;;19.87;;
28509;SDS011;15723;55.684;37.928;2022-12-05T01:54:05;42.00;;;18.97;;
28509;SDS011;15723;55.684;37.928;2022-12-05T01:56:32;45.13;;;19.07;;
28509;SDS011;15723;55.684;37.928;2022-12-05T01:59:03;41.83;;;18.13;;
28509;SDS011;15723;55.684;37.928;2022-12-05T02:01:33;40.58;;;19.13;;
28509;SDS011;15723;55.684;37.928;2022-12-05T02:04:00;38.53;;;16.90;;
28509;SDS011;15723;55.684;37.928;2022-12-05T02:06:27;43.03;;;18.40;;
28509;SDS011;15723;55.684;37.928;2022-12-05T02:08:54;63.83;;;19.93;;
28509;SDS011;15723;55.684;37.928;2022-12-05T02:11:21;110.50;;;22.77;;
28509;SDS011;15723;55.684;37.928;2022-12-05T02:38:01;34.67;;;15.47;;
28509;SDS011;15723;55.684;37.928;2022-12-05T02:40:39;32.33;;;16.60;;
28509;SDS011;15723;55.684;37.928;2022-12-05T02:43:17;33.40;;;15.60;;
28509;SDS011;15723;55.684;37.928;2022-12-05T02:45:51;37.50;;;15.87;;
28509;SDS011;15723;55.684;37.928;2022-12-05T02:48:24;32.05;;;15.20;;
28509;SDS011;15723;55.684;37.928;2022-12-05T02:50:54;34.20;;;15.93;;
28509;SDS011;15723;55.684;37.928;2022-12-05T02:53:24;37.70;;;16.27;;
28509;SDS011;15723;55.684;37.928;2022-12-05T02:55:53;36.70;;;17.83;;
28509;SDS011;15723;55.684;37.928;2022-12-05T02:58:22;34.57;;;16.33;;
28509;SDS011;15723;55.684;37.928;2022-12-05T03:00:56;39.40;;;16.70;;
28509;SDS011;15723;55.684;37.928;2022-12-05T03:03:23;35.23;;;16.10;;
28509;SDS011;15723;55.684;37.928;2022-12-05T03:05:54;33.30;;;15.17;;
28509;SDS011;15723;55.684;37.928;2022-12-05T03:08:42;33.03;;;16.53;;
28509;SDS011;15723;55.684;37.928;2022-12-05T03:11:21;39.90;;;18.13;;
28509;SDS011;15723;55.684;37.928;2022-12-05T03:13:51;79.63;;;18.80;;
28509;SDS011;15723;55.684;37.928;2022-12-05T03:16:25;111.27;;;20.53;;
28509;SDS011;15723;55.684;37.928;2022-12-05T03:19:00;38.30;;;16.23;;
28509;SDS011;15723;55.684;37.928;2022-12-05T03:21:34;42.73;;;18.13;;
28509;SDS011;15723;55.684;37.928;2022-12-05T03:24:07;26.92;;;13.57;;
28509;SDS011;15723;55.684;37.928;2022-12-05T03:32:05;40.73;;;19.70;;
28509;SDS011;15723;55.684;37.928;2022-12-05T03:34:40;42.20;;;18.27;;
28509;SDS011;15723;55.684;37.928;2022-12-05T03:40:12;41.20;;;17.67;;
28509;SDS011;15723;55.684;37.928;2022-12-05T03:42:46;37.43;;;16.93;;
28509;SDS011;15723;55.684;37.928;2022-12-05T03:45:32;43.70;;;17.37;;
28509;SDS011;15723;55.684;37.928;2022-12-05T03:48:09;36.90;;;17.23;;
28509;SDS011;15723;55.684;37.928;2022-12-05T03:50:44;45.40;;;18.33;;
28509;SDS011;15723;55.684;37.928;2022-12-05T03:53:18;43.67;;;18.37;;
28509;SDS011;15723;55.684;37.928;2022-12-05T03:55:53;36.97;;;16.97;;
28509;SDS011;15723;55.684;37.928;2022-12-05T03:58:28;41.93;;;18.33;;
28509;SDS011;15723;55.684;37.928;2022-12-05T04:01:00;45.33;;;18.67;;
28509;SDS011;15723;55.684;37.928;2022-12-05T04:03:42;255.67;;;31.43;;
28509;SDS011;15723;55.684;37.928;2022-12-05T04:06:35;43.13;;;17.80;;
28509;SDS011;15723;55.684;37.928;2022-12-05T04:09:08;117.43;;;20.93;;
28509;SDS011;15723;55.684;37.928;2022-12-05T04:11:58;149.97;;;25.30;;
28509;SDS011;15723;55.684;37.928;2022-12-05T04:14:33;45.23;;;17.80;;
28509;SDS011;15723;55.684;37.928;2022-12-05T04:17:10;48.27;;;17.13;;
28509;SDS011;15723;55.684;37.928;2022-12-05T04:22:35;40.23;;;18.53;;
28509;SDS011;15723;55.684;37.928;2022-12-05T04:25:03;49.60;;;16.70;;
28509;SDS011;15723;55.684;37.928;2022-12-05T04:30:42;39.30;;;16.50;;
28509;SDS011;15723;55.684;37.928;2022-12-05T04:33:28;42.97;;;18.03;;
28509;SDS011;15723;55.684;37.928;2022-12-05T04:36:19;43.43;;;18.33;;
28509;SDS011;15723;55.684;37.928;2022-12-05T04:39:20;41.00;;;17.10;;
28509;SDS011;15723;55.684;37.928;2022-12-05T04:41:49;31.90;;;16.67;;
28509;SDS011;15723;55.684;37.928;2022-12-05T04:44:21;40.53;;;18.02;;
28509;SDS011;15723;55.684;37.928;2022-12-05T04:46:54;30.37;;;15.13;;
28509;SDS011;15723;55.684;37.928;2022-12-05T04:49:25;33.43;;;15.77;;
28509;SDS011;15723;55.684;37.928;2022-12-05T04:51:55;33.83;;;14.57;;
28509;SDS011;15723;55.684;37.928;2022-12-05T04:54:33;34.73;;;15.13;;
28509;SDS011;15723;55.684;37.928;2022-12-05T04:57:32;30.30;;;14.23;;
28509;SDS011;15723;55.684;37.928;2022-12-05T05:00:15;28.20;;;13.10;;
28509;SDS011;15723;55.684;37.928;2022-12-05T05:02:44;24.73;;;11.10;;
28509;SDS011;15723;55.684;37.928;2022-12-05T05:05:15;24.50;;;11.93;;
28509;SDS011;15723;55.684;37.928;2022-12-05T05:07:45;30.07;;;13.73;;
28509;SDS011;15723;55.684;37.928;2022-12-05T05:10:17;29.33;;;12.77;;
28509;SDS011;15723;55.684;37.928;2022-12-05T05:12:47;36.47;;;14.60;;
28509;SDS011;15723;55.684;37.928;2022-12-05T05:15:13;27.87;;;11.13;;
28509;SDS011;15723;55.684;37.928;2022-12-05T05:17:39;28.57;;;13.60;;
28509;SDS011;15723;55.684;37.928;2022-12-05T05:20:06;42.40;;;14.90;;
28509;SDS011;15723;55.684;37.928;2022-12-05T05:22:54;33.57;;;14.27;;
28509;SDS011;15723;55.684;37.928;2022-12-05T05:25:23;37.93;;;13.97;;
28509;SDS011;15723;55.684;37.928;2022-12-05T05:27:51;35.47;;;14.33;;
28509;SDS011;15723;55.684;37.928;2022-12-05T05:30:19;32.27;;;14.33;;
28509;SDS011;15723;55.684;37.928;2022-12-05T05:32:47;29.33;;;12.70;;
28509;SDS011;15723;55.684;37.928;2022-12-05T05:35:13;26.83;;;13.03;;
28509;SDS011;15723;55.684;37.928;2022-12-05T05:37:40;28.90;;;13.60;;
28509;SDS011;15723;55.684;37.928;2022-12-05T05:40:08;41.17;;;15.93;;
28509;SDS011;15723;55.684;37.928;2022-12-05T05:42:35;32.87;;;13.23;;
28509;SDS011;15723;55.684;37.928;2022-12-05T05:45:06;34.73;;;14.10;;
28509;SDS011;15723;55.684;37.928;2022-12-05T05:47:32;42.73;;;14.27;;
28509;SDS011;15723;55.684;37.928;2022-12-05T05:50:00;33.73;;;13.90;;
28509;SDS011;15723;55.684;37.928;2022-12-05T05:52:28;35.15;;;14.90;;
28509;SDS011;15723;55.684;37.928;2022-12-05T05:54:56;33.20;;;14.40;;
28509;SDS011;15723;55.684;37.928;2022-12-05T05:57:22;31.87;;;13.03;;
28509;SDS011;15723;55.684;37.928;2022-12-05T05:59:49;28.83;;;13.93;;
28509;SDS011;15723;55.684;37.928;2022-12-05T06:02:15;39.27;;;15.20;;
28509;SDS011;15723;55.684;37.928;2022-12-05T06:04:41;37.77;;;14.57;;
28509;SDS011;15723;55.684;37.928;2022-12-05T06:07:07;43.33;;;14.97;;
28509;SDS011;15723;55.684;37.928;2022-12-05T06:09:33;31.83;;;13.73;;
28509;SDS011;15723;55.684;37.928;2022-12-05T06:11:59;38.33;;;16.47;;
28509;SDS011;15723;55.684;37.928;2022-12-05T06:14:25;34.83;;;13.60;;
28509;SDS011;15723;55.684;37.928;2022-12-05T06:16:54;26.23;;;13.05;;
28509;SDS011;15723;55.684;37.928;2022-12-05T06:19:24;34.20;;;13.77;;
28509;SDS011;15723;55.684;37.928;2022-12-05T06:21:50;29.67;;;13.85;;
28509;SDS011;15723;55.684;37.928;2022-12-05T06:24:16;39.47;;;15.75;;
28509;SDS011;15723;55.684;37.928;2022-12-05T06:26:42;40.92;;;16.73;;
28509;SDS011;15723;55.684;37.928;2022-12-05T06:29:09;38.13;;;15.30;;
28509;SDS011;15723;55.684;37.928;2022-12-05T06:31:35;43.03;;;16.75;;
28509;SDS011;15723;55.684;37.928;2022-12-05T06:34:02;38.10;;;15.85;;
28509;SDS011;15723;55.684;37.928;2022-12-05T06:36:29;42.72;;;16.15;;
28509;SDS011;15723;55.684;37.928;2022-12-05T06:38:57;35.70;;;14.93;;
28509;SDS011;15723;55.684;37.928;2022-12-05T06:41:25;31.08;;;13.50;;
28509;SDS011;15723;55.684;37.928;2022-12-05T06:43:53;40.30;;;16.85;;
28509;SDS011;15723;55.684;37.928;2022-12-05T06:46:20;32.70;;;14.27;;
28509;SDS011;15723;55.684;37.928;2022-12-05T06:48:47;35.22;;;13.55;;
28509;SDS011;15723;55.684;37.928;2022-12-05T06:51:14;26.63;;;13.70;;
28509;SDS011;15723;55.684;37.928;2022-12-05T06:53:42;32.17;;;13.52;;
28509;SDS011;15723;55.684;37.928;2022-12-05T06:56:10;26.73;;;12.48;;
28509;SDS011;15723;55.684;37.928;2022-12-05T06:58:41;25.15;;;12.40;;
28509;SDS011;15723;55.684;37.928;2022-12-05T07:01:10;28.00;;;12.18;;
28509;SDS011;15723;55.684;37.928;2022-12-05T07:03:56;30.50;;;14.02;;
28509;SDS011;15723;55.684;37.928;2022-12-05T07:06:22;28.20;;;12.68;;
28509;SDS011;15723;55.684;37.928;2022-12-05T07:08:48;26.48;;;12.02;;
28509;SDS011;15723;55.684;37.928;2022-12-05T07:11:15;27.17;;;13.10;;
28509;SDS011;15723;55.684;37.928;2022-12-05T07:13:41;31.67;;;13.85;;
28509;SDS011;15723;55.684;37.928;2022-12-05T07:16:07;41.17;;;15.43;;
28509;SDS011;15723;55.684;37.928;2022-12-05T07:18:34;28.13;;;14.70;;
28509;SDS011;15723;55.684;37.928;2022-12-05T07:21:04;28.48;;;14.02;;
28509;SDS011;15723;55.684;37.928;2022-12-05T07:23:32;26.13;;;12.90;;
28509;SDS011;15723;55.684;37.928;2022-12-05T07:26:02;32.85;;;14.90;;
28509;SDS011;15723;55.684;37.928;2022-12-05T07:28:30;28.20;;;13.02;;
28509;SDS011;15723;55.684;37.928;2022-12-05T07:31:20;30.70;;;13.25;;
28509;SDS011;15723;55.684;37.928;2022-12-05T07:33:47;31.13;;;13.52;;
28509;SDS011;15723;55.684;37.928;2022-12-05T07:36:15;32.13;;;15.02;;
28509;SDS011;15723;55.684;37.928;2022-12-05T07:38:43;32.78;;;15.65;;
28509;SDS011;15723;55.684;37.928;2022-12-05T07:41:21;32.55;;;14.93;;
28509;SDS011;15723;55.684;37.928;2022-12-05T07:43:49;51.38;;;19.52;;
28509;SDS011;15723;55.684;37.928;2022-12-05T07:46:16;42.50;;;17.10;;
28509;SDS011;15723;55.684;37.928;2022-12-05T07:48:43;37.08;;;15.82;;
28509;SDS011;15723;55.684;37.928;2022-12-05T07:51:09;28.98;;;14.43;;
28509;SDS011;15723;55.684;37.928;2022-12-05T07:53:36;28.08;;;14.00;;
28509;SDS011;15723;55.684;37.928;2022-12-05T07:56:05;32.08;;;15.25;;
28509;SDS011;15723;55.684;37.928;2022-12-05T07:58:33;31.58;;;15.95;;
28509;SDS011;15723;55.684;37.928;2022-12-05T08:01:07;29.40;;;15.43;;
28509;SDS011;15723;55.684;37.928;2022-12-05T08:03:41;33.95;;;15.10;;
28509;SDS011;15723;55.684;37.928;2022-12-05T08:06:09;28.17;;;13.85;;
28509;SDS011;15723;55.684;37.928;2022-12-05T08:08:38;21.67;;;12.65;;
28509;SDS011;15723;55.684;37.928;2022-12-05T08:11:06;25.92;;;13.25;;
28509;SDS011;15723;55.684;37.928;2022-12-05T08:13:35;27.40;;;14.77;;
28509;SDS011;15723;55.684;37.928;2022-12-05T08:16:05;23.55;;;13.63;;
28509;SDS011;15723;55.684;37.928;2022-12-05T08:18:33;28.08;;;12.13;;
28509;SDS011;15723;55.684;37.928;2022-12-05T08:21:03;21.52;;;12.05;;
28509;SDS011;15723;55.684;37.928;2022-12-05T08:23:32;27.58;;;13.35;;
28509;SDS011;15723;55.684;37.928;2022-12-05T08:26:06;31.05;;;12.18;;
28509;SDS011;15723;55.684;37.928;2022-12-05T08:28:35;21.08;;;11.27;;
28509;SDS011;15723;55.684;37.928;2022-12-05T08:31:02;22.92;;;10.57;;
28509;SDS011;15723;55.684;37.928;2022-12-05T08:33:29;33.78;;;12.35;;
28509;SDS011;15723;55.684;37.928;2022-12-05T08:35:56;22.90;;;12.38;;
28509;SDS011;15723;55.684;37.928;2022-12-05T08:38:24;23.33;;;11.98;;
28509;SDS011;15723;55.684;37.928;2022-12-05T08:40:50;35.70;;;13.77;;
28509;SDS011;15723;55.684;37.928;2022-12-05T08:43:16;25.48;;;11.95;;
28509;SDS011;15723;55.684;37.928;2022-12-05T08:45:48;30.65;;;11.70;;
28509;SDS011;15723;55.684;37.928;2022-12-05T08:48:15;27.70;;;12.52;;
28509;SDS011;15723;55.684;37.928;2022-12-05T08:50:41;29.13;;;12.25;;
28509;SDS011;15723;55.684;37.928;2022-12-05T08:53:07;25.17;;;11.95;;
28509;SDS011;15723;55.684;37.928;2022-12-05T08:55:34;21.80;;;12.15;;
28509;SDS011;15723;55.684;37.928;2022-12-05T08:58:04;23.77;;;11.40;;
28509;SDS011;15723;55.684;37.928;2022-12-05T09:00:30;22.80;;;12.23;;
28509;SDS011;15723;55.684;37.928;2022-12-05T09:02:57;19.20;;;9.90;;
28509;SDS011;15723;55.684;37.928;2022-12-05T09:05:23;23.08;;;11.75;;
28509;SDS011;15723;55.684;37.928;2022-12-05T09:07:50;18.83;;;10.88;;
28509;SDS011;15723;55.684;37.928;2022-12-05T09:10:17;24.27;;;11.40;;
28509;SDS011;15723;55.684;37.928;2022-12-05T09:12:43;22.30;;;11.75;;
28509;SDS011;15723;55.684;37.928;2022-12-05T09:15:10;26.10;;;12.88;;
28509;SDS011;15723;55.684;37.928;2022-12-05T09:17:37;19.98;;;11.15;;
28509;SDS011;15723;55.684;37.928;2022-12-05T09:20:05;23.60;;;12.77;;
28509;SDS011;15723;55.684;37.928;2022-12-05T09:22:32;21.67;;;10.93;;
28509;SDS011;15723;55.684;37.928;2022-12-05T09:24:58;21.30;;;10.63;;
28509;SDS011;15723;55.684;37.928;2022-12-05T09:27:26;21.85;;;10.98;;
28509;SDS011;15723;55.684;37.928;2022-12-05T09:29:53;17.08;;;9.85;;
28509;SDS011;15723;55.684;37.928;2022-12-05T09:32:19;20.48;;;10.63;;
28509;SDS011;15723;55.684;37.928;2022-12-05T09:34:45;18.38;;;10.07;;
28509;SDS011;15723;55.684;37.928;2022-12-05T09:37:11;23.10;;;11.13;;
28509;SDS011;15723;55.684;37.928;2022-12-05T09:39:37;18.27;;;9.70;;
28509;SDS011;15723;55.684;37.928;2022-12-05T09:45:02;24.15;;;11.48;;
28509;SDS011;15723;55.684;37.928;2022-12-05T09:58:55;23.15;;;12.43;;
28509;SDS011;15723;55.684;37.928;2022-12-05T10:06:36;20.80;;;10.35;;
28509;SDS011;15723;55.684;37.928;2022-12-05T10:14:59;19.83;;;9.75;;
28509;SDS011;15723;55.684;37.928;2022-12-05T10:18:09;25.48;;;10.85;;
28509;SDS011;15723;55.684;37.928;2022-12-05T10:21:01;22.92;;;10.45;;
28509;SDS011;15723;55.684;37.928;2022-12-05T10:23:40;27.88;;;10.57;;
28509;SDS011;15723;55.684;37.928;2022-12-05T10:26:16;24.60;;;10.07;;
28509;SDS011;15723;55.684;37.928;2022-12-05T10:28:51;23.08;;;11.20;;
28509;SDS011;15723;55.684;37.928;2022-12-05T10:31:25;21.73;;;10.95;;
28509;SDS011;15723;55.684;37.928;2022-12-05T10:33:57;24.10;;;10.25;;
28509;SDS011;15723;55.684;37.928;2022-12-05T10:36:28;23.40;;;10.63;;
28509;SDS011;15723;55.684;37.928;2022-12-05T10:38:55;17.45;;;10.43;;
28509;SDS011;15723;55.684;37.928;2022-12-05T10:41:23;16.60;;;10.40;;
28509;SDS011;15723;55.684;37.928;2022-12-05T10:43:49;17.42;;;8.80;;
28509;SDS011;15723;55.684;37.928;2022-12-05T10:46:16;18.30;;;9.13;;
28509;SDS011;15723;55.684;37.928;2022-12-05T10:48:42;18.58;;;9.55;;
28509;SDS011;15723;55.684;37.928;2022-12-05T10:51:13;15.52;;;9.00;;
28509;SDS011;15723;55.684;37.928;2022-12-05T10:53:44;19.83;;;10.05;;
28509;SDS011;15723;55.684;37.928;2022-12-05T10:56:37;19.95;;;9.63;;
28509;SDS011;15723;55.684;37.928;2022-12-05T10:59:09;21.02;;;10.50;;
28509;SDS011;15723;55.684;37.928;2022-12-05T11:01:47;18.77;;;9.23;;
28509;SDS011;15723;55.684;37.928;2022-12-05T11:04:29;29.55;;;10.90;;
28509;SDS011;15723;55.684;37.928;2022-12-05T11:07:05;26.27;;;10.25;;
28509;SDS011;15723;55.684;37.928;2022-12-05T11:09:32;25.75;;;10.65;;
28509;SDS011;15723;55.684;37.928;2022-12-05T11:17:29;27.13;;;11.18;;
28509;SDS011;15723;55.684;37.928;2022-12-05T11:19:58;19.35;;;10.27;;
28509;SDS011;15723;55.684;37.928;2022-12-05T11:22:32;18.67;;;9.80;;
28509;SDS011;15723;55.684;37.928;2022-12-05T11:25:00;26.98;;;11.27;;
28509;SDS011;15723;55.684;37.928;2022-12-05T11:27:46;26.67;;;10.68;;
28509;SDS011;15723;55.684;37.928;2022-12-05T11:32:38;22.52;;;9.20;;
28509;SDS011;15723;55.684;37.928;2022-12-05T11:37:47;17.90;;;7.95;;
28509;SDS011;15723;55.684;37.928;2022-12-05T11:52:02;15.50;;;7.68;;
28509;SDS011;15723;55.684;37.928;2022-12-05T12:00:02;14.38;;;7.32;;
28509;SDS011;15723;55.684;37.928;2022-12-05T12:03:02;11.75;;;6.82;;
28509;SDS011;15723;55.684;37.928;2022-12-05T12:08:22;14.50;;;7.10;;
28509;SDS011;15723;55.684;37.928;2022-12-05T12:11:02;13.48;;;6.88;;
28509;SDS011;15723;55.684;37.928;2022-12-05T12:16:20;19.33;;;9.90;;
28509;SDS011;15723;55.684;37.928;2022-12-05T12:19:17;22.23;;;9.77;;
28509;SDS011;15723;55.684;37.928;2022-12-05T12:25:14;17.80;;;9.10;;
28509;SDS011;15723;55.684;37.928;2022-12-05T12:28:01;25.60;;;10.35;;
28509;SDS011;15723;55.684;37.928;2022-12-05T12:30:53;30.13;;;11.05;;
28509;SDS011;15723;55.684;37.928;2022-12-05T12:38:40;23.38;;;10.13;;
28509;SDS011;15723;55.684;37.928;2022-12-05T12:47:08;25.38;;;10.10;;
28509;SDS011;15723;55.684;37.928;2022-12-05T12:50:00;24.70;;;9.73;;
28509;SDS011;15723;55.684;37.928;2022-12-05T13:03:33;20.17;;;10.70;;
28509;SDS011;15723;55.684;37.928;2022-12-05T13:06:11;30.33;;;10.05;;
28509;SDS011;15723;55.684;37.928;2022-12-05T13:08:43;20.60;;;9.77;;
28509;SDS011;15723;55.684;37.928;2022-12-05T13:11:15;19.13;;;8.25;;
28509;SDS011;15723;55.684;37.928;2022-12-05T13:13:44;21.65;;;9.43;;
28509;SDS011;15723;55.684;37.928;2022-12-05T13:16:20;24.63;;;11.50;;
28509;SDS011;15723;55.684;37.928;2022-12-05T13:18:57;29.50;;;12.40;;
28509;SDS011;15723;55.684;37.928;2022-12-05T13:21:24;26.95;;;12.38;;
28509;SDS011;15723;55.684;37.928;2022-12-05T13:23:52;30.80;;;12.27;;
28509;SDS011;15723;55.684;37.928;2022-12-05T13:26:21;28.35;;;11.93;;
28509;SDS011;15723;55.684;37.928;2022-12-05T13:31:18;29.90;;;11.13;;
28509;SDS011;15723;55.684;37.928;2022-12-05T13:33:58;27.48;;;10.68;;
28509;SDS011;15723;55.684;37.928;2022-12-05T13:36:24;27.48;;;11.40;;
28509;SDS011;15723;55.684;37.928;2022-12-05T13:41:56;20.08;;;11.23;;
28509;SDS011;15723;55.684;37.928;2022-12-05T13:55:38;22.27;;;12.05;;
28509;SDS011;15723;55.684;37.928;2022-12-05T14:00:44;24.65;;;13.25;;
28509;SDS011;15723;55.684;37.928;2022-12-05T14:03:16;26.90;;;13.88;;
28509;SDS011;15723;55.684;37.928;2022-12-05T14:05:57;28.33;;;13.05;;
28509;SDS011;15723;55.684;37.928;2022-12-05T14:18:45;24.05;;;12.15;;
28509;SDS011;15723;55.684;37.928;2022-12-05T14:21:49;28.60;;;12.90;;
28509;SDS011;15723;55.684;37.928;2022-12-05T14:25:38;25.48;;;12.35;;
28509;SDS011;15723;55.684;37.928;2022-12-05T14:28:04;29.67;;;12.30;;
28509;SDS011;15723;55.684;37.928;2022-12-05T14:30:50;28.40;;;12.98;;
28509;SDS011;15723;55.684;37.928;2022-12-05T14:33:36;23.77;;;11.73;;
28509;SDS011;15723;55.684;37.928;2022-12-05T14:36:06;22.08;;;11.93;;
28509;SDS011;15723;55.684;37.928;2022-12-05T14:38:39;25.50;;;13.30;;
28509;SDS011;15723;55.684;37.928;2022-12-05T14:41:19;26.58;;;12.43;;
28509;SDS011;15723;55.684;37.928;2022-12-05T14:43:51;25.58;;;11.85;;
28509;SDS011;15723;55.684;37.928;2022-12-05T14:46:22;28.35;;;13.20;;
28509;SDS011;15723;55.684;37.928;2022-12-05T14:48:52;22.27;;;10.98;;
28509;SDS011;15723;55.684;37.928;2022-12-05T14:53:55;23.48;;;12.05;;
28509;SDS011;15723;55.684;37.928;2022-12-05T14:56:45;23.33;;;11.82;;
28509;SDS011;15723;55.684;37.928;2022-12-05T15:01:55;27.05;;;10.98;;
28509;SDS011;15723;55.684;37.928;2022-12-05T15:04:40;25.17;;;11.77;;
28509;SDS011;15723;55.684;37.928;2022-12-05T15:15:11;30.55;;;13.82;;
28509;SDS011;15723;55.684;37.928;2022-12-05T15:17:59;28.85;;;13.38;;
28509;SDS011;15723;55.684;37.928;2022-12-05T15:26:04;27.77;;;13.27;;
28509;SDS011;15723;55.684;37.928;2022-12-05T15:28:40;34.63;;;13.95;;
28509;SDS011;15723;55.684;37.928;2022-12-05T15:31:21;27.80;;;13.00;;
28509;SDS011;15723;55.684;37.928;2022-12-05T15:33:51;30.92;;;13.05;;
28509;SDS011;15723;55.684;37.928;2022-12-05T15:36:20;26.08;;;13.13;;
28509;SDS011;15723;55.684;37.928;2022-12-05T15:38:54;28.17;;;11.50;;
28509;SDS011;15723;55.684;37.928;2022-12-05T15:41:20;28.38;;;13.02;;
28509;SDS011;15723;55.684;37.928;2022-12-05T15:43:55;24.70;;;12.73;;
28509;SDS011;15723;55.684;37.928;2022-12-05T15:46:23;26.13;;;12.95;;
28509;SDS011;15723;55.684;37.928;2022-12-05T15:48:56;26.05;;;13.48;;
28509;SDS011;15723;55.684;37.928;2022-12-05T15:51:26;26.70;;;12.65;;
28509;SDS011;15723;55.684;37.928;2022-12-05T15:56:34;26.20;;;12.02;;
28509;SDS011;15723;55.684;37.928;2022-12-05T15:59:32;24.70;;;12.23;;
28509;SDS011;15723;55.684;37.928;2022-12-05T16:02:36;24.08;;;12.00;;
28509;SDS011;15723;55.684;37.928;2022-12-05T16:05:19;26.65;;;12.48;;
28509;SDS011;15723;55.684;37.928;2022-12-05T16:07:52;25.00;;;12.75;;
28509;SDS011;15723;55.684;37.928;2022-12-05T16:10:19;28.77;;;11.63;;
28509;SDS011;15723;55.684;37.928;2022-12-05T16:12:46;26.02;;;12.85;;
28509;SDS011;15723;55.684;37.928;2022-12-05T16:15:32;29.70;;;12.05;;
28509;SDS011;15723;55.684;37.928;2022-12-05T16:17:59;22.77;;;11.00;;
28509;SDS011;15723;55.684;37.928;2022-12-05T16:20:35;25.58;;;11.20;;
28509;SDS011;15723;55.684;37.928;2022-12-05T16:23:03;28.50;;;12.60;;
28509;SDS011;15723;55.684;37.928;2022-12-05T16:25:45;23.85;;;10.88;;
28509;SDS011;15723;55.684;37.928;2022-12-05T16:30:56;24.97;;;11.97;;
28509;SDS011;15723;55.684;37.928;2022-12-05T16:33:24;24.53;;;11.27;;
28509;SDS011;15723;55.684;37.928;2022-12-05T16:35:51;24.55;;;11.80;;
28509;SDS011;15723;55.684;37.928;2022-12-05T16:38:24;23.30;;;10.43;;
28509;SDS011;15723;55.684;37.928;2022-12-05T16:43:25;20.45;;;10.70;;
28509;SDS011;15723;55.684;37.928;2022-12-05T16:48:32;21.70;;;10.27;;
28509;SDS011;15723;55.684;37.928;2022-12-05T16:51:14;23.17;;;11.23;;
28509;SDS011;15723;55.684;37.928;2022-12-05T16:53:45;22.95;;;11.25;;
28509;SDS011;15723;55.684;37.928;2022-12-05T16:56:24;24.80;;;10.97;;
28509;SDS011;15723;55.684;37.928;2022-12-05T16:58:52;19.58;;;11.15;;
28509;SDS011;15723;55.684;37.928;2022-12-05T17:01:20;17.80;;;9.27;;
28509;SDS011;15723;55.684;37.928;2022-12-05T17:03:48;24.83;;;10.43;;
28509;SDS011;15723;55.684;37.928;2022-12-05T17:06:14;23.40;;;9.95;;
28509;SDS011;15723;55.684;37.928;2022-12-05T17:08:42;24.48;;;10.90;;
28509;SDS011;15723;55.684;37.928;2022-12-05T17:11:11;25.27;;;11.37;;
28509;SDS011;15723;55.684;37.928;2022-12-05T17:13:50;27.43;;;11.47;;
28509;SDS011;15723;55.684;37.928;2022-12-05T17:16:18;28.80;;;11.20;;
28509;SDS011;15723;55.684;37.928;2022-12-05T17:18:45;21.40;;;12.40;;
28509;SDS011;15723;55.684;37.928;2022-12-05T17:21:32;23.75;;;10.02;;
28509;SDS011;15723;55.684;37.928;2022-12-05T17:23:58;24.33;;;11.23;;
28509;SDS011;15723;55.684;37.928;2022-12-05T17:26:25;21.87;;;10.80;;
28509;SDS011;15723;55.684;37.928;2022-12-05T17:28:51;22.45;;;11.10;;
28509;SDS011;15723;55.684;37.928;2022-12-05T17:31:19;25.13;;;11.75;;
28509;SDS011;15723;55.684;37.928;2022-12-05T17:33:47;22.30;;;10.70;;
28509;SDS011;15723;55.684;37.928;2022-12-05T17:36:15;22.65;;;10.57;;
28509;SDS011;15723;55.684;37.928;2022-12-05T17:38:41;20.13;;;10.63;;